sensor_id;sensor_type;location;lat;lon;timestamp;temperature;humidity
76857;DHT22;69705;44.686;37.628;2023-08-30T00:01:49;22.39;37.12
76857;DHT22;69705;44.686;37.628;2023-08-30T00:04:16;22.36;38.40
76857;DHT22;69705;44.686;37.628;2023-08-30T00:06:43;22.32;38.10
76857;DHT22;69705;44.686;37.628;2023-08-30T00:09:09;22.29;37.88
76857;DHT22;69705;44.686;37.628;2023-08-30T00:11:36;22.25;37.77
76857;DHT22;69705;44.686;37.628;2023-08-30T00:14:04;22.23;37.97
76857;DHT22;69705;44.686;37.628;2023-08-30T00:16:35;22.18;38.14
76857;DHT22;69705;44.686;37.628;2023-08-30T00:19:02;22.17;39.87
76857;DHT22;69705;44.686;37.628;2023-08-30T00:21:29;22.11;38.61
76857;DHT22;69705;44.686;37.628;2023-08-30T00:23:55;22.11;38.87
76857;DHT22;69705;44.686;37.628;2023-08-30T00:26:22;22.10;38.56
76857;DHT22;69705;44.686;37.628;2023-08-30T00:28:49;22.12;38.08
76857;DHT22;69705;44.686;37.628;2023-08-30T00:31:17;22.09;38.01
76857;DHT22;69705;44.686;37.628;2023-08-30T00:33:44;22.08;39.44
76857;DHT22;69705;44.686;37.628;2023-08-30T00:36:12;22.09;38.63
76857;DHT22;69705;44.686;37.628;2023-08-30T00:38:38;22.04;40.26
76857;DHT22;69705;44.686;37.628;2023-08-30T00:41:05;21.94;40.30
76857;DHT22;69705;44.686;37.628;2023-08-30T00:43:31;21.93;39.36
76857;DHT22;69705;44.686;37.628;2023-08-30T00:45:59;21.94;39.15
76857;DHT22;69705;44.686;37.628;2023-08-30T00:48:27;21.93;39.35
76857;DHT22;69705;44.686;37.628;2023-08-30T00:50:54;21.93;38.84
76857;DHT22;69705;44.686;37.628;2023-08-30T00:53:20;21.90;39.55
76857;DHT22;69705;44.686;37.628;2023-08-30T00:55:47;21.83;39.63
76857;DHT22;69705;44.686;37.628;2023-08-30T00:58:14;21.72;39.49
76857;DHT22;69705;44.686;37.628;2023-08-30T01:00:41;21.64;39.58
76857;DHT22;69705;44.686;37.628;2023-08-30T01:03:10;21.58;39.43
76857;DHT22;69705;44.686;37.628;2023-08-30T01:05:36;21.51;39.47
76857;DHT22;69705;44.686;37.628;2023-08-30T01:08:04;21.47;40.78
76857;DHT22;69705;44.686;37.628;2023-08-30T01:13:50;21.44;41.38
76857;DHT22;69705;44.686;37.628;2023-08-30T01:16:18;21.38;40.68
76857;DHT22;69705;44.686;37.628;2023-08-30T01:18:46;21.40;39.92
76857;DHT22;69705;44.686;37.628;2023-08-30T01:24:13;21.29;39.94
76857;DHT22;69705;44.686;37.628;2023-08-30T01:29:30;21.16;39.64
76857;DHT22;69705;44.686;37.628;2023-08-30T01:31:57;21.11;39.91
76857;DHT22;69705;44.686;37.628;2023-08-30T01:34:24;21.10;39.64
76857;DHT22;69705;44.686;37.628;2023-08-30T01:36:52;21.14;39.98
76857;DHT22;69705;44.686;37.628;2023-08-30T01:39:19;21.14;39.85
76857;DHT22;69705;44.686;37.628;2023-08-30T01:41:47;21.13;40.16
76857;DHT22;69705;44.686;37.628;2023-08-30T01:44:15;21.11;39.58
76857;DHT22;69705;44.686;37.628;2023-08-30T01:46:43;21.11;39.83
76857;DHT22;69705;44.686;37.628;2023-08-30T01:49:12;21.16;39.88
76857;DHT22;69705;44.686;37.628;2023-08-30T01:51:39;21.17;40.15
76857;DHT22;69705;44.686;37.628;2023-08-30T01:54:07;21.23;40.04
76857;DHT22;69705;44.686;37.628;2023-08-30T01:56:35;21.30;41.42
76857;DHT22;69705;44.686;37.628;2023-08-30T01:59:02;21.30;41.05
76857;DHT22;69705;44.686;37.628;2023-08-30T02:01:28;21.29;41.56
76857;DHT22;69705;44.686;37.628;2023-08-30T02:03:55;21.29;41.29
76857;DHT22;69705;44.686;37.628;2023-08-30T02:06:35;21.30;41.23
76857;DHT22;69705;44.686;37.628;2023-08-30T02:12:04;21.32;41.92
76857;DHT22;69705;44.686;37.628;2023-08-30T02:14:34;21.32;42.26
76857;DHT22;69705;44.686;37.628;2023-08-30T02:17:02;21.31;41.99
76857;DHT22;69705;44.686;37.628;2023-08-30T02:19:29;21.33;41.04
76857;DHT22;69705;44.686;37.628;2023-08-30T02:21:55;21.36;41.97
76857;DHT22;69705;44.686;37.628;2023-08-30T02:24:22;21.36;40.95
76857;DHT22;69705;44.686;37.628;2023-08-30T02:26:49;21.38;41.36
76857;DHT22;69705;44.686;37.628;2023-08-30T02:29:17;21.34;42.21
76857;DHT22;69705;44.686;37.628;2023-08-30T02:31:43;21.29;41.16
76857;DHT22;69705;44.686;37.628;2023-08-30T02:34:10;21.30;41.77
76857;DHT22;69705;44.686;37.628;2023-08-30T02:36:36;21.30;41.87
76857;DHT22;69705;44.686;37.628;2023-08-30T02:39:03;21.31;41.24
76857;DHT22;69705;44.686;37.628;2023-08-30T02:41:30;21.32;41.62
76857;DHT22;69705;44.686;37.628;2023-08-30T02:43:56;21.34;42.27
76857;DHT22;69705;44.686;37.628;2023-08-30T02:46:23;21.34;41.55
76857;DHT22;69705;44.686;37.628;2023-08-30T02:48:49;21.38;41.65
76857;DHT22;69705;44.686;37.628;2023-08-30T02:51:16;21.39;41.13
76857;DHT22;69705;44.686;37.628;2023-08-30T02:53:43;21.43;41.78
76857;DHT22;69705;44.686;37.628;2023-08-30T02:56:09;21.42;41.66
76857;DHT22;69705;44.686;37.628;2023-08-30T02:58:37;21.48;42.25
76857;DHT22;69705;44.686;37.628;2023-08-30T03:01:05;21.46;42.16
76857;DHT22;69705;44.686;37.628;2023-08-30T03:03:31;21.49;41.62
76857;DHT22;69705;44.686;37.628;2023-08-30T03:05:58;21.50;41.93
76857;DHT22;69705;44.686;37.628;2023-08-30T03:08:24;21.53;43.22
76857;DHT22;69705;44.686;37.628;2023-08-30T03:10:51;21.49;42.96
76857;DHT22;69705;44.686;37.628;2023-08-30T03:13:18;21.50;44.19
76857;DHT22;69705;44.686;37.628;2023-08-30T03:15:45;21.50;44.69
76857;DHT22;69705;44.686;37.628;2023-08-30T03:18:11;21.53;44.07
76857;DHT22;69705;44.686;37.628;2023-08-30T03:20:38;21.58;44.87
76857;DHT22;69705;44.686;37.628;2023-08-30T03:23:06;21.58;45.04
76857;DHT22;69705;44.686;37.628;2023-08-30T03:25:33;21.54;44.45
76857;DHT22;69705;44.686;37.628;2023-08-30T03:28:00;21.60;45.31
76857;DHT22;69705;44.686;37.628;2023-08-30T03:30:27;21.57;44.96
76857;DHT22;69705;44.686;37.628;2023-08-30T03:32:55;21.57;45.30
76857;DHT22;69705;44.686;37.628;2023-08-30T03:35:22;21.63;45.03
76857;DHT22;69705;44.686;37.628;2023-08-30T03:37:50;21.66;45.06
76857;DHT22;69705;44.686;37.628;2023-08-30T03:40:17;21.65;46.09
76857;DHT22;69705;44.686;37.628;2023-08-30T03:42:43;21.70;46.61
76857;DHT22;69705;44.686;37.628;2023-08-30T03:45:10;21.76;45.02
76857;DHT22;69705;44.686;37.628;2023-08-30T03:47:36;21.83;45.68
76857;DHT22;69705;44.686;37.628;2023-08-30T03:50:03;21.91;45.38
76857;DHT22;69705;44.686;37.628;2023-08-30T03:52:30;21.98;45.42
76857;DHT22;69705;44.686;37.628;2023-08-30T03:54:57;22.02;45.22
76857;DHT22;69705;44.686;37.628;2023-08-30T03:57:23;22.07;45.60
76857;DHT22;69705;44.686;37.628;2023-08-30T03:59:50;22.11;45.33
76857;DHT22;69705;44.686;37.628;2023-08-30T04:02:16;22.19;44.68
76857;DHT22;69705;44.686;37.628;2023-08-30T04:04:46;22.28;45.66
76857;DHT22;69705;44.686;37.628;2023-08-30T04:07:12;22.36;44.67
76857;DHT22;69705;44.686;37.628;2023-08-30T04:09:39;22.46;44.61
76857;DHT22;69705;44.686;37.628;2023-08-30T04:12:06;22.50;45.06
76857;DHT22;69705;44.686;37.628;2023-08-30T04:14:32;22.55;43.90
76857;DHT22;69705;44.686;37.628;2023-08-30T04:16:59;22.62;44.57
76857;DHT22;69705;44.686;37.628;2023-08-30T04:19:25;22.67;44.42
76857;DHT22;69705;44.686;37.628;2023-08-30T04:21:52;22.73;44.96
76857;DHT22;69705;44.686;37.628;2023-08-30T04:24:18;22.81;44.47
76857;DHT22;69705;44.686;37.628;2023-08-30T04:26:45;22.87;44.34
76857;DHT22;69705;44.686;37.628;2023-08-30T04:29:16;22.93;44.35
76857;DHT22;69705;44.686;37.628;2023-08-30T04:31:43;23.00;43.74
76857;DHT22;69705;44.686;37.628;2023-08-30T04:34:10;23.07;43.26
76857;DHT22;69705;44.686;37.628;2023-08-30T04:36:37;23.16;43.96
76857;DHT22;69705;44.686;37.628;2023-08-30T04:39:04;23.23;43.65
76857;DHT22;69705;44.686;37.628;2023-08-30T04:41:32;23.32;43.46
76857;DHT22;69705;44.686;37.628;2023-08-30T04:43:59;23.40;42.65
76857;DHT22;69705;44.686;37.628;2023-08-30T04:46:26;23.50;42.58
76857;DHT22;69705;44.686;37.628;2023-08-30T04:48:52;23.58;42.68
76857;DHT22;69705;44.686;37.628;2023-08-30T04:51:19;23.62;43.25
76857;DHT22;69705;44.686;37.628;2023-08-30T04:53:46;23.72;42.98
76857;DHT22;69705;44.686;37.628;2023-08-30T04:56:13;23.81;41.71
76857;DHT22;69705;44.686;37.628;2023-08-30T04:58:40;23.91;42.00
76857;DHT22;69705;44.686;37.628;2023-08-30T05:01:08;24.01;41.37
76857;DHT22;69705;44.686;37.628;2023-08-30T05:03:36;24.11;42.48
76857;DHT22;69705;44.686;37.628;2023-08-30T05:06:03;24.25;41.92
76857;DHT22;69705;44.686;37.628;2023-08-30T05:08:30;24.36;41.28
76857;DHT22;69705;44.686;37.628;2023-08-30T05:10:57;24.44;40.40
76857;DHT22;69705;44.686;37.628;2023-08-30T05:13:23;24.54;40.80
76857;DHT22;69705;44.686;37.628;2023-08-30T05:15:50;24.64;40.47
76857;DHT22;69705;44.686;37.628;2023-08-30T05:18:19;24.78;40.97
76857;DHT22;69705;44.686;37.628;2023-08-30T05:20:47;24.97;41.71
76857;DHT22;69705;44.686;37.628;2023-08-30T05:23:13;25.07;41.54
76857;DHT22;69705;44.686;37.628;2023-08-30T05:25:40;25.24;42.24
76857;DHT22;69705;44.686;37.628;2023-08-30T05:28:07;25.34;41.61
76857;DHT22;69705;44.686;37.628;2023-08-30T05:30:34;25.49;41.50
76857;DHT22;69705;44.686;37.628;2023-08-30T05:33:11;25.65;41.13
76857;DHT22;69705;44.686;37.628;2023-08-30T05:35:56;25.83;40.65
76857;DHT22;69705;44.686;37.628;2023-08-30T05:38:49;26.03;40.31
76857;DHT22;69705;44.686;37.628;2023-08-30T05:41:29;26.19;40.30
76857;DHT22;69705;44.686;37.628;2023-08-30T05:43:56;26.31;39.39
76857;DHT22;69705;44.686;37.628;2023-08-30T05:46:23;26.40;39.54
76857;DHT22;69705;44.686;37.628;2023-08-30T05:48:49;26.49;39.53
76857;DHT22;69705;44.686;37.628;2023-08-30T05:51:16;26.55;39.57
76857;DHT22;69705;44.686;37.628;2023-08-30T05:53:43;26.63;39.27
76857;DHT22;69705;44.686;37.628;2023-08-30T05:56:09;26.71;38.99
76857;DHT22;69705;44.686;37.628;2023-08-30T05:58:36;26.79;38.42
76857;DHT22;69705;44.686;37.628;2023-08-30T06:01:04;26.87;39.36
76857;DHT22;69705;44.686;37.628;2023-08-30T06:03:32;26.96;39.16
76857;DHT22;69705;44.686;37.628;2023-08-30T06:05:59;27.13;39.64
76857;DHT22;69705;44.686;37.628;2023-08-30T06:08:26;27.26;38.53
76857;DHT22;69705;44.686;37.628;2023-08-30T06:10:52;27.41;38.97
76857;DHT22;69705;44.686;37.628;2023-08-30T06:13:19;27.59;39.63
76857;DHT22;69705;44.686;37.628;2023-08-30T06:15:50;27.72;39.31
76857;DHT22;69705;44.686;37.628;2023-08-30T06:18:17;27.84;39.42
76857;DHT22;69705;44.686;37.628;2023-08-30T06:20:43;27.96;39.07
76857;DHT22;69705;44.686;37.628;2023-08-30T06:23:11;28.04;39.31
76857;DHT22;69705;44.686;37.628;2023-08-30T06:25:37;28.14;40.16
76857;DHT22;69705;44.686;37.628;2023-08-30T06:28:04;28.28;40.20
76857;DHT22;69705;44.686;37.628;2023-08-30T06:30:31;28.38;39.51
76857;DHT22;69705;44.686;37.628;2023-08-30T06:32:58;28.46;40.53
76857;DHT22;69705;44.686;37.628;2023-08-30T06:35:25;28.59;42.25
76857;DHT22;69705;44.686;37.628;2023-08-30T06:37:51;28.69;41.07
76857;DHT22;69705;44.686;37.628;2023-08-30T06:40:18;28.78;41.35
76857;DHT22;69705;44.686;37.628;2023-08-30T06:42:45;28.89;41.52
76857;DHT22;69705;44.686;37.628;2023-08-30T06:45:11;29.05;42.77
76857;DHT22;69705;44.686;37.628;2023-08-30T06:47:38;29.14;42.76
76857;DHT22;69705;44.686;37.628;2023-08-30T06:50:05;29.26;40.00
76857;DHT22;69705;44.686;37.628;2023-08-30T06:52:32;29.38;41.39
76857;DHT22;69705;44.686;37.628;2023-08-30T06:54:59;29.50;40.91
76857;DHT22;69705;44.686;37.628;2023-08-30T06:57:25;29.63;40.38
76857;DHT22;69705;44.686;37.628;2023-08-30T06:59:52;29.76;40.51
76857;DHT22;69705;44.686;37.628;2023-08-30T07:02:18;29.88;48.98
76857;DHT22;69705;44.686;37.628;2023-08-30T07:04:45;29.95;47.23
76857;DHT22;69705;44.686;37.628;2023-08-30T07:07:12;29.97;48.55
76857;DHT22;69705;44.686;37.628;2023-08-30T07:09:40;29.88;50.76
76857;DHT22;69705;44.686;37.628;2023-08-30T07:12:07;29.83;49.85
76857;DHT22;69705;44.686;37.628;2023-08-30T07:14:34;29.96;49.38
76857;DHT22;69705;44.686;37.628;2023-08-30T07:17:01;30.11;50.25
76857;DHT22;69705;44.686;37.628;2023-08-30T07:19:28;30.22;50.30
76857;DHT22;69705;44.686;37.628;2023-08-30T07:21:54;30.34;48.38
76857;DHT22;69705;44.686;37.628;2023-08-30T07:24:21;30.40;44.97
76857;DHT22;69705;44.686;37.628;2023-08-30T07:26:49;30.50;44.68
76857;DHT22;69705;44.686;37.628;2023-08-30T07:29:15;30.48;43.91
76857;DHT22;69705;44.686;37.628;2023-08-30T07:31:42;30.49;43.08
76857;DHT22;69705;44.686;37.628;2023-08-30T07:34:09;30.51;44.22
76857;DHT22;69705;44.686;37.628;2023-08-30T07:36:36;30.57;45.76
76857;DHT22;69705;44.686;37.628;2023-08-30T07:39:03;30.67;46.60
76857;DHT22;69705;44.686;37.628;2023-08-30T07:41:32;30.64;45.10
76857;DHT22;69705;44.686;37.628;2023-08-30T07:43:59;30.78;43.58
76857;DHT22;69705;44.686;37.628;2023-08-30T07:46:25;31.01;44.55
76857;DHT22;69705;44.686;37.628;2023-08-30T07:48:52;31.18;43.22
76857;DHT22;69705;44.686;37.628;2023-08-30T07:51:19;31.18;43.03
76857;DHT22;69705;44.686;37.628;2023-08-30T07:53:46;31.15;44.33
76857;DHT22;69705;44.686;37.628;2023-08-30T07:56:13;31.09;43.50
76857;DHT22;69705;44.686;37.628;2023-08-30T07:58:41;31.01;43.29
76857;DHT22;69705;44.686;37.628;2023-08-30T08:01:09;30.94;44.58
76857;DHT22;69705;44.686;37.628;2023-08-30T08:03:36;30.97;44.36
76857;DHT22;69705;44.686;37.628;2023-08-30T08:06:03;30.84;49.05
76857;DHT22;69705;44.686;37.628;2023-08-30T08:08:30;30.84;51.18
76857;DHT22;69705;44.686;37.628;2023-08-30T08:10:58;30.78;50.76
76857;DHT22;69705;44.686;37.628;2023-08-30T08:13:25;30.90;50.73
76857;DHT22;69705;44.686;37.628;2023-08-30T08:15:56;31.15;50.32
76857;DHT22;69705;44.686;37.628;2023-08-30T08:18:23;31.33;51.08
76857;DHT22;69705;44.686;37.628;2023-08-30T08:20:50;31.48;50.05
76857;DHT22;69705;44.686;37.628;2023-08-30T08:23:17;31.42;50.69
76857;DHT22;69705;44.686;37.628;2023-08-30T08:25:44;31.50;49.27
76857;DHT22;69705;44.686;37.628;2023-08-30T08:28:11;31.42;51.99
76857;DHT22;69705;44.686;37.628;2023-08-30T08:30:38;31.53;53.39
76857;DHT22;69705;44.686;37.628;2023-08-30T08:33:05;31.54;53.54
76857;DHT22;69705;44.686;37.628;2023-08-30T08:35:32;31.56;52.26
76857;DHT22;69705;44.686;37.628;2023-08-30T08:37:59;31.56;52.93
76857;DHT22;69705;44.686;37.628;2023-08-30T08:40:25;31.69;52.98
76857;DHT22;69705;44.686;37.628;2023-08-30T08:42:53;31.79;51.99
76857;DHT22;69705;44.686;37.628;2023-08-30T08:45:22;31.74;51.68
76857;DHT22;69705;44.686;37.628;2023-08-30T08:47:49;31.68;52.78
76857;DHT22;69705;44.686;37.628;2023-08-30T08:50:16;31.69;54.36
76857;DHT22;69705;44.686;37.628;2023-08-30T08:52:43;31.68;54.87
76857;DHT22;69705;44.686;37.628;2023-08-30T08:55:10;31.70;55.76
76857;DHT22;69705;44.686;37.628;2023-08-30T08:57:38;31.78;56.45
76857;DHT22;69705;44.686;37.628;2023-08-30T09:00:06;31.79;56.84
76857;DHT22;69705;44.686;37.628;2023-08-30T09:02:33;31.84;56.76
76857;DHT22;69705;44.686;37.628;2023-08-30T09:05:00;31.85;56.71
76857;DHT22;69705;44.686;37.628;2023-08-30T09:07:27;32.01;57.32
76857;DHT22;69705;44.686;37.628;2023-08-30T09:09:56;31.97;57.82
76857;DHT22;69705;44.686;37.628;2023-08-30T09:12:23;32.02;58.00
76857;DHT22;69705;44.686;37.628;2023-08-30T09:14:56;32.09;57.55
76857;DHT22;69705;44.686;37.628;2023-08-30T09:17:23;32.17;57.69
76857;DHT22;69705;44.686;37.628;2023-08-30T09:19:49;32.23;57.06
76857;DHT22;69705;44.686;37.628;2023-08-30T09:22:16;32.34;56.90
76857;DHT22;69705;44.686;37.628;2023-08-30T09:24:43;32.46;56.73
76857;DHT22;69705;44.686;37.628;2023-08-30T09:27:09;32.47;57.29
76857;DHT22;69705;44.686;37.628;2023-08-30T09:29:36;32.54;56.85
76857;DHT22;69705;44.686;37.628;2023-08-30T09:32:03;32.63;56.80
76857;DHT22;69705;44.686;37.628;2023-08-30T09:34:29;32.93;55.55
76857;DHT22;69705;44.686;37.628;2023-08-30T09:36:56;33.04;54.56
76857;DHT22;69705;44.686;37.628;2023-08-30T09:39:25;33.06;55.66
76857;DHT22;69705;44.686;37.628;2023-08-30T09:41:54;33.01;55.61
76857;DHT22;69705;44.686;37.628;2023-08-30T09:44:21;33.15;55.27
76857;DHT22;69705;44.686;37.628;2023-08-30T09:46:53;33.09;55.88
76857;DHT22;69705;44.686;37.628;2023-08-30T09:49:24;32.97;57.83
76857;DHT22;69705;44.686;37.628;2023-08-30T09:51:53;33.23;56.58
76857;DHT22;69705;44.686;37.628;2023-08-30T09:54:24;33.31;56.36
76857;DHT22;69705;44.686;37.628;2023-08-30T09:56:51;33.25;56.10
76857;DHT22;69705;44.686;37.628;2023-08-30T09:59:19;33.20;57.06
76857;DHT22;69705;44.686;37.628;2023-08-30T10:01:47;33.40;57.15
76857;DHT22;69705;44.686;37.628;2023-08-30T10:04:20;33.33;56.90
76857;DHT22;69705;44.686;37.628;2023-08-30T10:06:47;33.36;56.99
76857;DHT22;69705;44.686;37.628;2023-08-30T10:09:15;33.40;57.94
76857;DHT22;69705;44.686;37.628;2023-08-30T10:11:44;33.47;59.08
76857;DHT22;69705;44.686;37.628;2023-08-30T10:14:13;33.67;58.01
76857;DHT22;69705;44.686;37.628;2023-08-30T10:19:24;33.52;57.26
76857;DHT22;69705;44.686;37.628;2023-08-30T10:22:06;33.56;57.87
76857;DHT22;69705;44.686;37.628;2023-08-30T10:24:45;33.60;57.64
76857;DHT22;69705;44.686;37.628;2023-08-30T10:27:13;33.74;57.60
76857;DHT22;69705;44.686;37.628;2023-08-30T10:29:42;33.93;56.79
76857;DHT22;69705;44.686;37.628;2023-08-30T10:32:09;33.89;56.86
76857;DHT22;69705;44.686;37.628;2023-08-30T10:34:37;33.65;57.61
76857;DHT22;69705;44.686;37.628;2023-08-30T10:37:07;33.73;58.18
76857;DHT22;69705;44.686;37.628;2023-08-30T10:39:36;33.72;58.29
76857;DHT22;69705;44.686;37.628;2023-08-30T10:42:16;33.55;59.55
76857;DHT22;69705;44.686;37.628;2023-08-30T10:44:56;33.61;58.74
76857;DHT22;69705;44.686;37.628;2023-08-30T10:47:28;33.59;59.46
76857;DHT22;69705;44.686;37.628;2023-08-30T10:49:59;33.72;58.28
76857;DHT22;69705;44.686;37.628;2023-08-30T10:52:27;33.83;58.21
76857;DHT22;69705;44.686;37.628;2023-08-30T10:55:14;33.83;57.83
76857;DHT22;69705;44.686;37.628;2023-08-30T10:57:43;33.93;58.41
76857;DHT22;69705;44.686;37.628;2023-08-30T11:00:20;34.02;58.36
76857;DHT22;69705;44.686;37.628;2023-08-30T11:02:51;33.93;58.98
76857;DHT22;69705;44.686;37.628;2023-08-30T11:05:20;33.94;58.16
76857;DHT22;69705;44.686;37.628;2023-08-30T11:07:47;33.81;58.80
76857;DHT22;69705;44.686;37.628;2023-08-30T11:10:18;33.70;59.47
76857;DHT22;69705;44.686;37.628;2023-08-30T11:12:46;33.72;59.29
76857;DHT22;69705;44.686;37.628;2023-08-30T11:15:14;33.77;58.96
76857;DHT22;69705;44.686;37.628;2023-08-30T11:17:42;33.61;59.96
76857;DHT22;69705;44.686;37.628;2023-08-30T11:20:16;33.62;59.38
76857;DHT22;69705;44.686;37.628;2023-08-30T11:22:45;33.66;59.80
76857;DHT22;69705;44.686;37.628;2023-08-30T11:25:14;33.71;60.54
76857;DHT22;69705;44.686;37.628;2023-08-30T11:27:42;33.68;60.34
76857;DHT22;69705;44.686;37.628;2023-08-30T11:30:10;33.67;59.41
76857;DHT22;69705;44.686;37.628;2023-08-30T11:32:38;33.64;60.42
76857;DHT22;69705;44.686;37.628;2023-08-30T11:35:06;33.71;59.88
76857;DHT22;69705;44.686;37.628;2023-08-30T11:37:33;33.82;59.73
76857;DHT22;69705;44.686;37.628;2023-08-30T11:40:02;34.01;59.49
76857;DHT22;69705;44.686;37.628;2023-08-30T11:42:31;33.95;60.06
76857;DHT22;69705;44.686;37.628;2023-08-30T11:44:59;33.80;60.05
76857;DHT22;69705;44.686;37.628;2023-08-30T11:47:27;33.72;60.07
76857;DHT22;69705;44.686;37.628;2023-08-30T11:49:57;33.56;60.99
76857;DHT22;69705;44.686;37.628;2023-08-30T11:52:26;33.73;60.67
76857;DHT22;69705;44.686;37.628;2023-08-30T11:54:54;33.59;60.38
76857;DHT22;69705;44.686;37.628;2023-08-30T11:57:21;33.49;61.13
76857;DHT22;69705;44.686;37.628;2023-08-30T11:59:48;33.46;61.70
76857;DHT22;69705;44.686;37.628;2023-08-30T12:02:17;33.65;61.38
76857;DHT22;69705;44.686;37.628;2023-08-30T12:04:46;33.83;60.96
76857;DHT22;69705;44.686;37.628;2023-08-30T12:07:26;33.66;61.40
76857;DHT22;69705;44.686;37.628;2023-08-30T12:10:04;33.66;62.08
76857;DHT22;69705;44.686;37.628;2023-08-30T12:12:31;33.59;61.82
76857;DHT22;69705;44.686;37.628;2023-08-30T12:14:58;33.47;62.34
76857;DHT22;69705;44.686;37.628;2023-08-30T12:17:25;33.32;62.39
76857;DHT22;69705;44.686;37.628;2023-08-30T12:19:58;33.34;62.27
76857;DHT22;69705;44.686;37.628;2023-08-30T12:22:41;33.30;61.99
76857;DHT22;69705;44.686;37.628;2023-08-30T12:27:43;33.36;61.90
76857;DHT22;69705;44.686;37.628;2023-08-30T12:30:10;33.19;61.94
76857;DHT22;69705;44.686;37.628;2023-08-30T12:32:36;33.22;61.76
76857;DHT22;69705;44.686;37.628;2023-08-30T12:35:03;33.05;62.40
76857;DHT22;69705;44.686;37.628;2023-08-30T12:37:30;33.00;62.47
76857;DHT22;69705;44.686;37.628;2023-08-30T12:39:57;33.12;62.57
76857;DHT22;69705;44.686;37.628;2023-08-30T12:42:26;33.14;62.82
76857;DHT22;69705;44.686;37.628;2023-08-30T12:44:53;33.05;63.24
76857;DHT22;69705;44.686;37.628;2023-08-30T12:47:19;33.00;63.47
76857;DHT22;69705;44.686;37.628;2023-08-30T12:49:47;32.93;63.63
76857;DHT22;69705;44.686;37.628;2023-08-30T12:52:13;32.92;63.60
76857;DHT22;69705;44.686;37.628;2023-08-30T12:54:41;32.96;64.30
76857;DHT22;69705;44.686;37.628;2023-08-30T12:57:07;32.81;64.91
76857;DHT22;69705;44.686;37.628;2023-08-30T12:59:34;32.90;64.53
76857;DHT22;69705;44.686;37.628;2023-08-30T13:02:01;33.00;64.26
76857;DHT22;69705;44.686;37.628;2023-08-30T13:04:27;32.78;64.84
76857;DHT22;69705;44.686;37.628;2023-08-30T13:06:54;32.59;65.75
76857;DHT22;69705;44.686;37.628;2023-08-30T13:09:21;32.58;65.62
76857;DHT22;69705;44.686;37.628;2023-08-30T13:11:48;32.61;65.31
76857;DHT22;69705;44.686;37.628;2023-08-30T13:14:15;32.61;65.84
76857;DHT22;69705;44.686;37.628;2023-08-30T13:16:44;32.55;66.45
76857;DHT22;69705;44.686;37.628;2023-08-30T13:19:11;32.40;67.15
76857;DHT22;69705;44.686;37.628;2023-08-30T13:21:38;32.31;67.95
76857;DHT22;69705;44.686;37.628;2023-08-30T13:24:06;32.19;67.87
76857;DHT22;69705;44.686;37.628;2023-08-30T13:26:33;32.05;67.91
76857;DHT22;69705;44.686;37.628;2023-08-30T13:29:00;31.81;69.49
76857;DHT22;69705;44.686;37.628;2023-08-30T13:31:28;31.78;69.77
76857;DHT22;69705;44.686;37.628;2023-08-30T13:33:55;31.84;69.05
76857;DHT22;69705;44.686;37.628;2023-08-30T13:36:22;31.87;69.49
76857;DHT22;69705;44.686;37.628;2023-08-30T13:38:49;31.70;69.36
76857;DHT22;69705;44.686;37.628;2023-08-30T13:41:16;31.50;70.45
76857;DHT22;69705;44.686;37.628;2023-08-30T13:43:43;31.30;71.19
76857;DHT22;69705;44.686;37.628;2023-08-30T13:46:10;31.16;71.54
76857;DHT22;69705;44.686;37.628;2023-08-30T13:48:37;31.18;71.30
76857;DHT22;69705;44.686;37.628;2023-08-30T13:51:04;31.07;71.84
76857;DHT22;69705;44.686;37.628;2023-08-30T13:53:30;30.89;72.17
76857;DHT22;69705;44.686;37.628;2023-08-30T13:55:57;30.72;73.04
76857;DHT22;69705;44.686;37.628;2023-08-30T13:58:24;30.57;73.35
76857;DHT22;69705;44.686;37.628;2023-08-30T14:00:51;30.49;73.15
76857;DHT22;69705;44.686;37.628;2023-08-30T14:03:20;30.42;73.74
76857;DHT22;69705;44.686;37.628;2023-08-30T14:05:47;30.36;74.40
76857;DHT22;69705;44.686;37.628;2023-08-30T14:08:14;30.23;74.98
76857;DHT22;69705;44.686;37.628;2023-08-30T14:10:41;30.15;75.46
76857;DHT22;69705;44.686;37.628;2023-08-30T14:13:08;30.05;76.11
76857;DHT22;69705;44.686;37.628;2023-08-30T14:15:35;30.08;75.92
76857;DHT22;69705;44.686;37.628;2023-08-30T14:18:01;30.05;76.12
76857;DHT22;69705;44.686;37.628;2023-08-30T14:20:28;30.04;76.40
76857;DHT22;69705;44.686;37.628;2023-08-30T14:22:55;30.03;76.21
76857;DHT22;69705;44.686;37.628;2023-08-30T14:25:22;29.98;76.98
76857;DHT22;69705;44.686;37.628;2023-08-30T14:27:49;29.91;76.53
76857;DHT22;69705;44.686;37.628;2023-08-30T14:30:17;29.91;76.32
76857;DHT22;69705;44.686;37.628;2023-08-30T14:32:44;29.87;75.37
76857;DHT22;69705;44.686;37.628;2023-08-30T14:35:11;29.78;74.76
76857;DHT22;69705;44.686;37.628;2023-08-30T14:37:39;29.70;76.26
76857;DHT22;69705;44.686;37.628;2023-08-30T14:40:07;29.72;76.23
76857;DHT22;69705;44.686;37.628;2023-08-30T14:42:34;29.62;76.70
76857;DHT22;69705;44.686;37.628;2023-08-30T14:45:01;29.58;76.25
76857;DHT22;69705;44.686;37.628;2023-08-30T14:47:29;29.58;76.07
76857;DHT22;69705;44.686;37.628;2023-08-30T14:49:57;29.53;75.80
76857;DHT22;69705;44.686;37.628;2023-08-30T14:52:24;29.49;74.98
76857;DHT22;69705;44.686;37.628;2023-08-30T14:54:51;29.44;73.06
76857;DHT22;69705;44.686;37.628;2023-08-30T14:57:18;29.43;73.64
76857;DHT22;69705;44.686;37.628;2023-08-30T14:59:46;29.42;74.86
76857;DHT22;69705;44.686;37.628;2023-08-30T15:02:13;29.35;74.42
76857;DHT22;69705;44.686;37.628;2023-08-30T15:04:40;29.29;75.57
76857;DHT22;69705;44.686;37.628;2023-08-30T15:07:07;29.19;75.92
76857;DHT22;69705;44.686;37.628;2023-08-30T15:09:34;29.13;76.20
76857;DHT22;69705;44.686;37.628;2023-08-30T15:12:01;29.14;76.05
76857;DHT22;69705;44.686;37.628;2023-08-30T15:14:28;29.12;76.80
76857;DHT22;69705;44.686;37.628;2023-08-30T15:16:55;29.09;76.70
76857;DHT22;69705;44.686;37.628;2023-08-30T15:19:22;29.08;76.86
76857;DHT22;69705;44.686;37.628;2023-08-30T15:21:49;29.06;77.14
76857;DHT22;69705;44.686;37.628;2023-08-30T15:24:15;29.02;77.57
76857;DHT22;69705;44.686;37.628;2023-08-30T15:26:44;29.00;77.43
76857;DHT22;69705;44.686;37.628;2023-08-30T15:29:11;29.01;78.06
76857;DHT22;69705;44.686;37.628;2023-08-30T15:31:38;28.95;77.27
76857;DHT22;69705;44.686;37.628;2023-08-30T15:34:05;28.98;76.98
76857;DHT22;69705;44.686;37.628;2023-08-30T15:36:31;28.98;77.43